sensor_id;sensor_type;location;lat;lon;timestamp;pressure;altitude;pressure_sealevel;temperature;humidity
35649;BME280;21768;48.562;13.414;2024-02-26T00:01:40;95821.16;;;3.48;72.19
35649;BME280;21768;48.562;13.414;2024-02-26T00:04:05;95821.06;;;3.47;72.21
35649;BME280;21768;48.562;13.414;2024-02-26T00:06:31;95825.00;;;3.43;72.38
35649;BME280;21768;48.562;13.414;2024-02-26T00:08:58;95816.56;;;3.41;72.62
35649;BME280;21768;48.562;13.414;2024-02-26T00:11:25;95814.53;;;3.35;72.57
35649;BME280;21768;48.562;13.414;2024-02-26T00:13:50;95816.03;;;3.33;72.81
35649;BME280;21768;48.562;13.414;2024-02-26T00:16:16;95818.13;;;3.27;72.73
35649;BME280;21768;48.562;13.414;2024-02-26T00:18:41;95810.16;;;3.20;72.87
35649;BME280;21768;48.562;13.414;2024-02-26T00:21:07;95804.00;;;3.15;72.88
35649;BME280;21768;48.562;13.414;2024-02-26T00:23:33;95812.03;;;3.11;72.79
35649;BME280;21768;48.562;13.414;2024-02-26T00:25:59;95805.00;;;3.05;72.71
35649;BME280;21768;48.562;13.414;2024-02-26T00:28:24;95802.41;;;3.03;72.99
35649;BME280;21768;48.562;13.414;2024-02-26T00:30:50;95794.44;;;2.96;72.85
35649;BME280;21768;48.562;13.414;2024-02-26T00:33:21;95796.06;;;2.95;72.94
35649;BME280;21768;48.562;13.414;2024-02-26T00:35:48;95793.69;;;2.97;72.80
35649;BME280;21768;48.562;13.414;2024-02-26T00:38:14;95797.00;;;2.97;72.57
35649;BME280;21768;48.562;13.414;2024-02-26T00:40:40;95797.22;;;3.00;72.46
35649;BME280;21768;48.562;13.414;2024-02-26T00:43:08;95785.63;;;3.01;72.27
35649;BME280;21768;48.562;13.414;2024-02-26T00:45:34;95796.47;;;3.01;72.31
35649;BME280;21768;48.562;13.414;2024-02-26T00:47:59;95788.34;;;3.04;72.20
35649;BME280;21768;48.562;13.414;2024-02-26T00:50:34;95790.72;;;3.02;72.21
35649;BME280;21768;48.562;13.414;2024-02-26T00:53:00;95782.28;;;3.00;72.11
35649;BME280;21768;48.562;13.414;2024-02-26T00:55:26;95771.34;;;2.98;72.10
35649;BME280;21768;48.562;13.414;2024-02-26T00:57:51;95772.91;;;2.96;71.97
35649;BME280;21768;48.562;13.414;2024-02-26T01:00:17;95758.28;;;2.89;72.29
35649;BME280;21768;48.562;13.414;2024-02-26T01:02:43;95760.69;;;2.88;72.37
35649;BME280;21768;48.562;13.414;2024-02-26T01:05:12;95760.69;;;2.88;72.14
35649;BME280;21768;48.562;13.414;2024-02-26T01:07:38;95750.41;;;2.83;72.11
35649;BME280;21768;48.562;13.414;2024-02-26T01:10:05;95752.91;;;2.83;72.05
35649;BME280;21768;48.562;13.414;2024-02-26T01:12:31;95751.19;;;2.82;71.96
35649;BME280;21768;48.562;13.414;2024-02-26T01:15:01;95755.19;;;2.80;72.03
35649;BME280;21768;48.562;13.414;2024-02-26T01:17:30;95752.91;;;2.83;72.10
35649;BME280;21768;48.562;13.414;2024-02-26T01:19:56;95737.50;;;2.89;71.87
35649;BME280;21768;48.562;13.414;2024-02-26T01:22:22;95739.25;;;2.90;71.91
35649;BME280;21768;48.562;13.414;2024-02-26T01:24:47;95739.56;;;2.94;71.69
35649;BME280;21768;48.562;13.414;2024-02-26T01:27:13;95745.50;;;2.96;71.61
35649;BME280;21768;48.562;13.414;2024-02-26T01:29:42;95745.78;;;3.01;71.50
35649;BME280;21768;48.562;13.414;2024-02-26T01:32:08;95737.66;;;3.03;71.73
35649;BME280;21768;48.562;13.414;2024-02-26T01:34:33;95741.97;;;3.06;71.72
35649;BME280;21768;48.562;13.414;2024-02-26T01:37:00;95735.91;;;3.02;71.72
35649;BME280;21768;48.562;13.414;2024-02-26T01:39:26;95737.25;;;2.97;71.87
35649;BME280;21768;48.562;13.414;2024-02-26T01:41:56;95735.34;;;2.93;72.18
35649;BME280;21768;48.562;13.414;2024-02-26T01:44:22;95734.38;;;2.91;72.37
35649;BME280;21768;48.562;13.414;2024-02-26T01:46:48;95733.59;;;2.92;72.20
35649;BME280;21768;48.562;13.414;2024-02-26T01:49:15;95727.00;;;2.93;72.40
35649;BME280;21768;48.562;13.414;2024-02-26T01:51:41;95727.09;;;2.94;72.20
35649;BME280;21768;48.562;13.414;2024-02-26T01:54:08;95733.59;;;2.92;72.42
35649;BME280;21768;48.562;13.414;2024-02-26T01:56:35;95734.47;;;2.93;72.36
35649;BME280;21768;48.562;13.414;2024-02-26T01:59:02;95744.53;;;2.94;72.33
35649;BME280;21768;48.562;13.414;2024-02-26T02:01:30;95736.84;;;2.91;72.13
35649;BME280;21768;48.562;13.414;2024-02-26T02:03:58;95741.84;;;2.91;72.39
35649;BME280;21768;48.562;13.414;2024-02-26T02:06:24;95726.69;;;2.88;72.41
35649;BME280;21768;48.562;13.414;2024-02-26T02:08:49;95742.06;;;2.83;72.17
35649;BME280;21768;48.562;13.414;2024-02-26T02:11:16;95742.53;;;2.77;72.30
35649;BME280;21768;48.562;13.414;2024-02-26T02:13:47;95745.56;;;2.73;72.73
35649;BME280;21768;48.562;13.414;2024-02-26T02:16:13;95744.91;;;2.76;72.71
35649;BME280;21768;48.562;13.414;2024-02-26T02:18:39;95745.78;;;2.76;72.26
35649;BME280;21768;48.562;13.414;2024-02-26T02:21:05;95752.59;;;2.79;72.30
35649;BME280;21768;48.562;13.414;2024-02-26T02:23:31;95759.09;;;2.77;72.42
35649;BME280;21768;48.562;13.414;2024-02-26T02:25:57;95755.53;;;2.73;72.53
35649;BME280;21768;48.562;13.414;2024-02-26T02:28:23;95747.13;;;2.71;72.37
35649;BME280;21768;48.562;13.414;2024-02-26T02:30:50;95751.88;;;2.68;72.54
35649;BME280;21768;48.562;13.414;2024-02-26T02:33:16;95755.03;;;2.65;72.48
35649;BME280;21768;48.562;13.414;2024-02-26T02:35:41;95762.94;;;2.60;72.38
35649;BME280;21768;48.562;13.414;2024-02-26T02:38:07;95750.28;;;2.57;72.27
35649;BME280;21768;48.562;13.414;2024-02-26T02:40:33;95756.69;;;2.53;72.40
35649;BME280;21768;48.562;13.414;2024-02-26T02:42:59;95757.31;;;2.51;72.40
35649;BME280;21768;48.562;13.414;2024-02-26T02:45:27;95745.47;;;2.47;72.53
35649;BME280;21768;48.562;13.414;2024-02-26T02:47:52;95746.31;;;2.47;72.30
35649;BME280;21768;48.562;13.414;2024-02-26T02:50:18;95750.63;;;2.50;72.35
35649;BME280;21768;48.562;13.414;2024-02-26T02:52:43;95752.34;;;2.51;72.39
35649;BME280;21768;48.562;13.414;2024-02-26T02:55:09;95746.50;;;2.50;72.44
35649;BME280;21768;48.562;13.414;2024-02-26T02:57:35;95748.03;;;2.48;72.29
35649;BME280;21768;48.562;13.414;2024-02-26T03:00:10;95750.50;;;2.48;72.35
35649;BME280;21768;48.562;13.414;2024-02-26T03:02:36;95745.09;;;2.54;72.15
35649;BME280;21768;48.562;13.414;2024-02-26T03:05:05;95737.72;;;2.55;72.39
35649;BME280;21768;48.562;13.414;2024-02-26T03:07:31;95733.84;;;2.59;72.18
35649;BME280;21768;48.562;13.414;2024-02-26T03:09:57;95733.72;;;2.57;72.20
35649;BME280;21768;48.562;13.414;2024-02-26T03:12:22;95723.78;;;2.57;72.15
35649;BME280;21768;48.562;13.414;2024-02-26T03:14:48;95716.50;;;2.60;72.17
35649;BME280;21768;48.562;13.414;2024-02-26T03:17:13;95709.81;;;2.59;71.87
35649;BME280;21768;48.562;13.414;2024-02-26T03:19:39;95710.78;;;2.61;72.07
35649;BME280;21768;48.562;13.414;2024-02-26T03:22:05;95706.66;;;2.62;72.07
35649;BME280;21768;48.562;13.414;2024-02-26T03:24:30;95710.25;;;2.54;71.95
35649;BME280;21768;48.562;13.414;2024-02-26T03:26:56;95711.78;;;2.52;72.50
35649;BME280;21768;48.562;13.414;2024-02-26T03:29:22;95704.31;;;2.52;72.41
35649;BME280;21768;48.562;13.414;2024-02-26T03:31:48;95708.19;;;2.60;72.51
35649;BME280;21768;48.562;13.414;2024-02-26T03:34:13;95706.47;;;2.59;72.46
35649;BME280;21768;48.562;13.414;2024-02-26T03:36:40;95703.22;;;2.48;72.66
35649;BME280;21768;48.562;13.414;2024-02-26T03:39:06;95712.53;;;2.51;72.81
35649;BME280;21768;48.562;13.414;2024-02-26T03:41:33;95710.63;;;2.47;73.10
35649;BME280;21768;48.562;13.414;2024-02-26T03:43:59;95711.94;;;2.42;73.06
35649;BME280;21768;48.562;13.414;2024-02-26T03:46:25;95710.75;;;2.36;73.23
35649;BME280;21768;48.562;13.414;2024-02-26T03:48:51;95709.88;;;2.36;73.08
35649;BME280;21768;48.562;13.414;2024-02-26T03:51:17;95716.69;;;2.38;73.16
35649;BME280;21768;48.562;13.414;2024-02-26T03:53:42;95715.19;;;2.41;73.14
35649;BME280;21768;48.562;13.414;2024-02-26T03:56:11;95715.28;;;2.42;73.42
35649;BME280;21768;48.562;13.414;2024-02-26T03:58:37;95708.69;;;2.43;73.32
35649;BME280;21768;48.562;13.414;2024-02-26T04:01:03;95713.78;;;2.44;73.42
35649;BME280;21768;48.562;13.414;2024-02-26T04:03:29;95711.94;;;2.42;73.22
35649;BME280;21768;48.562;13.414;2024-02-26T04:05:55;95730.09;;;2.41;73.45
35649;BME280;21768;48.562;13.414;2024-02-26T04:08:21;95718.63;;;2.43;73.45
35649;BME280;21768;48.562;13.414;2024-02-26T04:10:46;95730.09;;;2.41;73.38
35649;BME280;21768;48.562;13.414;2024-02-26T04:13:12;95726.88;;;2.42;73.29
35649;BME280;21768;48.562;13.414;2024-02-26T04:15:38;95728.47;;;2.41;73.51
35649;BME280;21768;48.562;13.414;2024-02-26T04:18:04;95731.63;;;2.38;73.27
35649;BME280;21768;48.562;13.414;2024-02-26T04:20:29;95726.66;;;2.38;73.50
35649;BME280;21768;48.562;13.414;2024-02-26T04:22:55;95733.56;;;2.43;73.28
35649;BME280;21768;48.562;13.414;2024-02-26T04:25:21;95737.13;;;2.46;73.26
35649;BME280;21768;48.562;13.414;2024-02-26T04:27:46;95741.63;;;2.52;72.92
35649;BME280;21768;48.562;13.414;2024-02-26T04:30:12;95736.22;;;2.57;72.88
35649;BME280;21768;48.562;13.414;2024-02-26T04:32:38;95741.31;;;2.59;72.94
35649;BME280;21768;48.562;13.414;2024-02-26T04:35:04;95746.16;;;2.57;72.78
35649;BME280;21768;48.562;13.414;2024-02-26T04:37:30;95746.06;;;2.56;72.96
35649;BME280;21768;48.562;13.414;2024-02-26T04:40:00;95742.59;;;2.54;72.80
35649;BME280;21768;48.562;13.414;2024-02-26T04:42:25;95739.91;;;2.51;72.85
35649;BME280;21768;48.562;13.414;2024-02-26T04:44:51;95744.59;;;2.46;72.87
35649;BME280;21768;48.562;13.414;2024-02-26T04:47:16;95743.31;;;2.39;72.87
35649;BME280;21768;48.562;13.414;2024-02-26T04:49:42;95741.38;;;2.35;72.90
35649;BME280;21768;48.562;13.414;2024-02-26T04:52:08;95742.88;;;2.33;73.01
35649;BME280;21768;48.562;13.414;2024-02-26T04:54:34;95739.41;;;2.31;72.91
35649;BME280;21768;48.562;13.414;2024-02-26T04:56:59;95727.53;;;2.27;73.08
35649;BME280;21768;48.562;13.414;2024-02-26T04:59:25;95732.41;;;2.26;72.87
35649;BME280;21768;48.562;13.414;2024-02-26T05:01:52;95733.16;;;2.25;72.80
35649;BME280;21768;48.562;13.414;2024-02-26T05:04:18;95735.09;;;2.29;72.85
35649;BME280;21768;48.562;13.414;2024-02-26T05:06:44;95734.66;;;2.34;72.89
35649;BME280;21768;48.562;13.414;2024-02-26T05:09:10;95734.44;;;2.31;72.61
35649;BME280;21768;48.562;13.414;2024-02-26T05:11:35;95733.59;;;2.31;72.73
35649;BME280;21768;48.562;13.414;2024-02-26T05:14:03;95735.75;;;2.26;72.90
35649;BME280;21768;48.562;13.414;2024-02-26T05:16:28;95735.47;;;2.22;72.96
35649;BME280;21768;48.562;13.414;2024-02-26T05:18:56;95739.47;;;2.20;73.09
35649;BME280;21768;48.562;13.414;2024-02-26T05:21:22;95735.25;;;2.19;73.25
35649;BME280;21768;48.562;13.414;2024-02-26T05:23:52;95741.63;;;2.15;73.18
35649;BME280;21768;48.562;13.414;2024-02-26T05:26:21;95747.25;;;2.13;73.38
35649;BME280;21768;48.562;13.414;2024-02-26T05:28:47;95738.38;;;2.16;73.33
35649;BME280;21768;48.562;13.414;2024-02-26T05:31:14;95728.44;;;2.16;73.33
35649;BME280;21768;48.562;13.414;2024-02-26T05:33:41;95739.13;;;2.15;73.21
35649;BME280;21768;48.562;13.414;2024-02-26T05:36:07;95737.72;;;2.19;73.41
35649;BME280;21768;48.562;13.414;2024-02-26T05:38:33;95735.53;;;2.23;73.16
35649;BME280;21768;48.562;13.414;2024-02-26T05:40:58;95733.38;;;2.28;73.38
35649;BME280;21768;48.562;13.414;2024-02-26T05:43:27;95740.94;;;2.29;73.41
35649;BME280;21768;48.562;13.414;2024-02-26T05:45:53;95737.91;;;2.33;73.31
35649;BME280;21768;48.562;13.414;2024-02-26T05:48:19;95738.78;;;2.34;73.47
35649;BME280;21768;48.562;13.414;2024-02-26T05:50:46;95740.41;;;2.33;73.52
35649;BME280;21768;48.562;13.414;2024-02-26T05:53:12;95743.00;;;2.35;73.60
35649;BME280;21768;48.562;13.414;2024-02-26T05:55:37;95747.84;;;2.33;73.53
35649;BME280;21768;48.562;13.414;2024-02-26T05:58:03;95755.09;;;2.30;73.65
35649;BME280;21768;48.562;13.414;2024-02-26T06:00:30;95752.88;;;2.22;73.66
35649;BME280;21768;48.562;13.414;2024-02-26T06:02:55;95751.78;;;2.18;73.82
35649;BME280;21768;48.562;13.414;2024-02-26T06:05:23;95750.94;;;2.18;74.05
35649;BME280;21768;48.562;13.414;2024-02-26T06:07:48;95764.72;;;2.26;73.82
35649;BME280;21768;48.562;13.414;2024-02-26T06:10:14;95760.28;;;2.33;73.48
35649;BME280;21768;48.562;13.414;2024-02-26T06:12:40;95759.31;;;2.43;73.82
35649;BME280;21768;48.562;13.414;2024-02-26T06:15:08;95760.13;;;2.55;73.29
35649;BME280;21768;48.562;13.414;2024-02-26T06:17:34;95756.44;;;2.62;73.23
35649;BME280;21768;48.562;13.414;2024-02-26T06:20:00;95760.56;;;2.61;73.40
35649;BME280;21768;48.562;13.414;2024-02-26T06:22:26;95762.94;;;2.60;73.35
35649;BME280;21768;48.562;13.414;2024-02-26T06:24:52;95750.38;;;2.58;73.25
35649;BME280;21768;48.562;13.414;2024-02-26T06:27:18;95766.84;;;2.56;72.95
35649;BME280;21768;48.562;13.414;2024-02-26T06:29:43;95774.84;;;2.64;73.09
35649;BME280;21768;48.562;13.414;2024-02-26T06:32:09;95785.00;;;2.67;72.89
35649;BME280;21768;48.562;13.414;2024-02-26T06:34:35;95788.47;;;2.69;72.73
35649;BME280;21768;48.562;13.414;2024-02-26T06:37:01;95784.03;;;2.65;72.72
35649;BME280;21768;48.562;13.414;2024-02-26T06:39:28;95792.38;;;2.65;72.62
35649;BME280;21768;48.562;13.414;2024-02-26T06:41:54;95794.41;;;2.71;72.72
35649;BME280;21768;48.562;13.414;2024-02-26T06:44:27;95803.78;;;2.87;72.57
35649;BME280;21768;48.562;13.414;2024-02-26T06:47:00;95800.38;;;2.98;72.42
35649;BME280;21768;48.562;13.414;2024-02-26T06:49:26;95796.88;;;3.07;72.42
35649;BME280;21768;48.562;13.414;2024-02-26T06:51:52;95798.47;;;3.19;72.26
35649;BME280;21768;48.562;13.414;2024-02-26T06:54:18;95804.44;;;3.34;71.86
35649;BME280;21768;48.562;13.414;2024-02-26T06:56:48;95803.72;;;3.48;71.86
35649;BME280;21768;48.562;13.414;2024-02-26T06:59:14;95814.50;;;3.60;71.41
35649;BME280;21768;48.562;13.414;2024-02-26T07:01:41;95811.53;;;3.66;71.27
35649;BME280;21768;48.562;13.414;2024-02-26T07:04:07;95807.44;;;3.80;71.14
35649;BME280;21768;48.562;13.414;2024-02-26T07:06:32;95803.59;;;3.98;70.71
35649;BME280;21768;48.562;13.414;2024-02-26T07:08:58;95805.56;;;4.15;70.26
35649;BME280;21768;48.562;13.414;2024-02-26T07:11:24;95801.81;;;4.35;70.13
35649;BME280;21768;48.562;13.414;2024-02-26T07:13:50;95793.31;;;4.46;69.88
35649;BME280;21768;48.562;13.414;2024-02-26T07:16:16;95798.78;;;4.54;69.64
35649;BME280;21768;48.562;13.414;2024-02-26T07:18:42;95798.78;;;4.67;69.47
35649;BME280;21768;48.562;13.414;2024-02-26T07:21:16;95788.94;;;4.83;69.04
35649;BME280;21768;48.562;13.414;2024-02-26T07:24:01;95791.75;;;5.02;68.79
35649;BME280;21768;48.562;13.414;2024-02-26T07:26:31;95797.31;;;5.11;68.58
35649;BME280;21768;48.562;13.414;2024-02-26T07:28:57;95797.50;;;5.15;68.43
35649;BME280;21768;48.562;13.414;2024-02-26T07:31:23;95799.75;;;5.25;68.35
35649;BME280;21768;48.562;13.414;2024-02-26T07:33:48;95807.50;;;5.29;68.11
35649;BME280;21768;48.562;13.414;2024-02-26T07:36:14;95806.44;;;5.39;67.90
35649;BME280;21768;48.562;13.414;2024-02-26T07:38:39;95804.63;;;5.36;67.98
35649;BME280;21768;48.562;13.414;2024-02-26T07:41:05;95813.66;;;5.34;67.96
35649;BME280;21768;48.562;13.414;2024-02-26T07:43:30;95812.59;;;5.31;67.97
35649;BME280;21768;48.562;13.414;2024-02-26T07:45:57;95814.53;;;5.35;68.17
35649;BME280;21768;48.562;13.414;2024-02-26T07:48:23;95820.56;;;5.38;67.80
35649;BME280;21768;48.562;13.414;2024-02-26T07:50:49;95809.97;;;5.42;67.78
35649;BME280;21768;48.562;13.414;2024-02-26T07:53:14;95814.63;;;5.51;67.72
35649;BME280;21768;48.562;13.414;2024-02-26T07:55:40;95810.84;;;5.72;67.53
35649;BME280;21768;48.562;13.414;2024-02-26T07:58:07;95808.28;;;5.86;67.36
35649;BME280;21768;48.562;13.414;2024-02-26T08:00:34;95816.25;;;6.08;67.23
35649;BME280;21768;48.562;13.414;2024-02-26T08:03:01;95809.41;;;6.35;66.78
35649;BME280;21768;48.562;13.414;2024-02-26T08:05:26;95807.38;;;6.59;66.40
35649;BME280;21768;48.562;13.414;2024-02-26T08:07:51;95812.31;;;6.73;66.13
35649;BME280;21768;48.562;13.414;2024-02-26T08:10:17;95813.06;;;6.87;65.77
35649;BME280;21768;48.562;13.414;2024-02-26T08:12:42;95812.78;;;7.13;65.33
35649;BME280;21768;48.562;13.414;2024-02-26T08:15:08;95810.69;;;7.88;64.34
35649;BME280;21768;48.562;13.414;2024-02-26T08:17:33;95805.81;;;8.97;62.27
35649;BME280;21768;48.562;13.414;2024-02-26T08:20:00;95802.56;;;10.17;58.91
35649;BME280;21768;48.562;13.414;2024-02-26T08:22:26;95796.16;;;10.89;56.58
35649;BME280;21768;48.562;13.414;2024-02-26T08:24:51;95798.84;;;11.16;55.95
35649;BME280;21768;48.562;13.414;2024-02-26T08:27:16;95801.66;;;11.47;55.11
35649;BME280;21768;48.562;13.414;2024-02-26T08:29:42;95808.22;;;11.66;54.64
35649;BME280;21768;48.562;13.414;2024-02-26T08:32:08;95807.81;;;11.78;54.19
35649;BME280;21768;48.562;13.414;2024-02-26T08:34:33;95817.44;;;11.66;53.50
35649;BME280;21768;48.562;13.414;2024-02-26T08:36:59;95820.59;;;11.58;53.76
35649;BME280;21768;48.562;13.414;2024-02-26T08:39:24;95814.56;;;11.55;54.11
35649;BME280;21768;48.562;13.414;2024-02-26T08:41:51;95816.63;;;11.43;53.97
35649;BME280;21768;48.562;13.414;2024-02-26T08:44:16;95824.06;;;11.16;54.79
35649;BME280;21768;48.562;13.414;2024-02-26T08:46:42;95815.88;;;10.99;55.38
35649;BME280;21768;48.562;13.414;2024-02-26T08:49:07;95818.84;;;10.89;55.38
35649;BME280;21768;48.562;13.414;2024-02-26T08:51:33;95824.88;;;10.93;55.64
35649;BME280;21768;48.562;13.414;2024-02-26T08:53:58;95821.28;;;11.31;55.35
35649;BME280;21768;48.562;13.414;2024-02-26T08:56:23;95816.06;;;11.98;53.87
35649;BME280;21768;48.562;13.414;2024-02-26T08:58:49;95814.66;;;13.13;51.43
35649;BME280;21768;48.562;13.414;2024-02-26T09:01:16;95813.53;;;13.93;49.24
35649;BME280;21768;48.562;13.414;2024-02-26T09:03:42;95803.16;;;14.50;47.42
35649;BME280;21768;48.562;13.414;2024-02-26T09:06:07;95809.06;;;14.87;47.22
35649;BME280;21768;48.562;13.414;2024-02-26T09:08:33;95807.88;;;14.71;46.81
35649;BME280;21768;48.562;13.414;2024-02-26T09:10:58;95819.84;;;14.08;48.23
35649;BME280;21768;48.562;13.414;2024-02-26T09:13:24;95822.97;;;13.38;49.50
35649;BME280;21768;48.562;13.414;2024-02-26T09:15:49;95820.53;;;12.84;50.70
35649;BME280;21768;48.562;13.414;2024-02-26T09:18:15;95829.13;;;12.35;51.65
35649;BME280;21768;48.562;13.414;2024-02-26T09:20:45;95828.91;;;12.04;52.00
35649;BME280;21768;48.562;13.414;2024-02-26T09:23:10;95834.31;;;12.14;51.55
35649;BME280;21768;48.562;13.414;2024-02-26T09:25:36;95826.56;;;12.89;50.10
35649;BME280;21768;48.562;13.414;2024-02-26T09:28:01;95824.81;;;13.73;48.57
35649;BME280;21768;48.562;13.414;2024-02-26T09:30:27;95827.28;;;14.35;47.54
35649;BME280;21768;48.562;13.414;2024-02-26T09:32:53;95831.31;;;14.97;45.92
35649;BME280;21768;48.562;13.414;2024-02-26T09:35:18;95816.72;;;15.67;45.11
35649;BME280;21768;48.562;13.414;2024-02-26T09:37:44;95825.00;;;16.00;44.11
35649;BME280;21768;48.562;13.414;2024-02-26T09:40:10;95833.25;;;15.88;44.34
35649;BME280;21768;48.562;13.414;2024-02-26T09:42:37;95839.72;;;15.32;45.57
35649;BME280;21768;48.562;13.414;2024-02-26T09:45:05;95844.63;;;14.87;46.99
35649;BME280;21768;48.562;13.414;2024-02-26T09:47:33;95835.25;;;14.83;47.28
35649;BME280;21768;48.562;13.414;2024-02-26T09:50:01;95833.44;;;15.16;46.67
35649;BME280;21768;48.562;13.414;2024-02-26T09:52:28;95840.38;;;15.62;45.81
35649;BME280;21768;48.562;13.414;2024-02-26T09:54:53;95831.88;;;17.08;43.77
35649;BME280;21768;48.562;13.414;2024-02-26T09:57:19;95821.72;;;20.11;39.56
35649;BME280;21768;48.562;13.414;2024-02-26T09:59:51;95826.16;;;22.88;34.68
35649;BME280;21768;48.562;13.414;2024-02-26T10:02:20;95823.97;;;23.37;32.82
35649;BME280;21768;48.562;13.414;2024-02-26T10:04:47;95821.53;;;22.03;33.91
35649;BME280;21768;48.562;13.414;2024-02-26T10:07:15;95819.28;;;20.52;37.01
35649;BME280;21768;48.562;13.414;2024-02-26T10:09:40;95835.44;;;20.25;37.43
35649;BME280;21768;48.562;13.414;2024-02-26T10:12:08;95826.03;;;20.32;36.12
35649;BME280;21768;48.562;13.414;2024-02-26T10:14:35;95815.88;;;20.50;36.18
35649;BME280;21768;48.562;13.414;2024-02-26T10:17:01;95811.50;;;21.39;35.73
35649;BME280;21768;48.562;13.414;2024-02-26T10:19:28;95804.75;;;20.92;36.17
35649;BME280;21768;48.562;13.414;2024-02-26T10:21:59;95829.41;;;20.03;37.18
35649;BME280;21768;48.562;13.414;2024-02-26T10:24:26;95814.09;;;20.28;36.75
35649;BME280;21768;48.562;13.414;2024-02-26T10:26:52;95815.81;;;20.35;36.47
35649;BME280;21768;48.562;13.414;2024-02-26T10:29:19;95819.16;;;20.00;37.19
35649;BME280;21768;48.562;13.414;2024-02-26T10:31:44;95822.16;;;19.17;36.93
35649;BME280;21768;48.562;13.414;2024-02-26T10:34:10;95814.69;;;18.34;37.76
35649;BME280;21768;48.562;13.414;2024-02-26T10:36:36;95826.63;;;17.61;40.17
35649;BME280;21768;48.562;13.414;2024-02-26T10:39:04;95831.84;;;17.04;40.89
35649;BME280;21768;48.562;13.414;2024-02-26T10:41:30;95822.56;;;16.54;42.16
35649;BME280;21768;48.562;13.414;2024-02-26T10:43:55;95825.28;;;16.17;42.50
35649;BME280;21768;48.562;13.414;2024-02-26T10:46:23;95818.84;;;16.88;41.79
35649;BME280;21768;48.562;13.414;2024-02-26T10:48:51;95815.22;;;17.99;39.50
35649;BME280;21768;48.562;13.414;2024-02-26T10:51:20;95813.00;;;18.38;37.98
35649;BME280;21768;48.562;13.414;2024-02-26T10:53:51;95819.41;;;17.94;38.26
35649;BME280;21768;48.562;13.414;2024-02-26T10:56:24;95821.78;;;17.78;38.01
35649;BME280;21768;48.562;13.414;2024-02-26T10:58:53;95819.56;;;18.11;39.25
35649;BME280;21768;48.562;13.414;2024-02-26T11:01:19;95821.34;;;18.18;39.24
35649;BME280;21768;48.562;13.414;2024-02-26T11:03:48;95822.03;;;18.00;40.06
35649;BME280;21768;48.562;13.414;2024-02-26T11:06:16;95815.97;;;17.92;39.89
35649;BME280;21768;48.562;13.414;2024-02-26T11:08:43;95824.88;;;17.55;40.10
35649;BME280;21768;48.562;13.414;2024-02-26T11:11:09;95826.25;;;17.29;40.17
35649;BME280;21768;48.562;13.414;2024-02-26T11:13:42;95825.84;;;17.02;40.56
35649;BME280;21768;48.562;13.414;2024-02-26T11:16:11;95822.91;;;16.76;41.22
35649;BME280;21768;48.562;13.414;2024-02-26T11:18:39;95825.44;;;16.24;41.38
35649;BME280;21768;48.562;13.414;2024-02-26T11:21:07;95820.53;;;15.88;42.32
35649;BME280;21768;48.562;13.414;2024-02-26T11:23:34;95819.34;;;15.71;43.18
35649;BME280;21768;48.562;13.414;2024-02-26T11:26:04;95823.19;;;15.52;43.74
35649;BME280;21768;48.562;13.414;2024-02-26T11:28:33;95823.88;;;15.45;45.01
35649;BME280;21768;48.562;13.414;2024-02-26T11:31:00;95817.13;;;15.46;45.01
35649;BME280;21768;48.562;13.414;2024-02-26T11:33:33;95813.72;;;15.45;45.45
35649;BME280;21768;48.562;13.414;2024-02-26T11:36:19;95801.84;;;15.44;45.40
35649;BME280;21768;48.562;13.414;2024-02-26T11:38:46;95805.31;;;15.48;45.13
35649;BME280;21768;48.562;13.414;2024-02-26T11:41:16;95804.47;;;15.49;45.13
35649;BME280;21768;48.562;13.414;2024-02-26T11:44:05;95814.06;;;15.59;45.01
35649;BME280;21768;48.562;13.414;2024-02-26T11:46:42;95808.22;;;15.66;44.55
35649;BME280;21768;48.562;13.414;2024-02-26T11:51:53;95800.66;;;15.69;43.86
35649;BME280;21768;48.562;13.414;2024-02-26T11:57:03;95798.03;;;15.64;43.88
35649;BME280;21768;48.562;13.414;2024-02-26T11:59:39;95799.72;;;15.64;43.69
35649;BME280;21768;48.562;13.414;2024-02-26T12:02:07;95798.03;;;15.64;44.42
35649;BME280;21768;48.562;13.414;2024-02-26T12:04:34;95802.16;;;15.59;44.57
35649;BME280;21768;48.562;13.414;2024-02-26T12:07:04;95803.84;;;15.57;44.76
35649;BME280;21768;48.562;13.414;2024-02-26T12:12:05;95794.88;;;15.36;44.36
35649;BME280;21768;48.562;13.414;2024-02-26T12:14:40;95792.94;;;15.22;44.66
35649;BME280;21768;48.562;13.414;2024-02-26T12:17:23;95790.13;;;15.09;45.12
35649;BME280;21768;48.562;13.414;2024-02-26T12:19:49;95797.56;;;15.01;45.45
35649;BME280;21768;48.562;13.414;2024-02-26T12:22:16;95793.94;;;14.91;45.35
35649;BME280;21768;48.562;13.414;2024-02-26T12:24:43;95795.38;;;14.79;45.46
35649;BME280;21768;48.562;13.414;2024-02-26T12:27:09;95793.56;;;14.75;46.28
35649;BME280;21768;48.562;13.414;2024-02-26T12:29:34;95795.16;;;14.70;46.30
35649;BME280;21768;48.562;13.414;2024-02-26T12:32:01;95787.38;;;14.63;45.96
35649;BME280;21768;48.562;13.414;2024-02-26T12:34:27;95789.72;;;14.54;46.14
35649;BME280;21768;48.562;13.414;2024-02-26T12:36:53;95785.31;;;14.47;46.02
35649;BME280;21768;48.562;13.414;2024-02-26T12:39:19;95791.22;;;14.46;46.00
35649;BME280;21768;48.562;13.414;2024-02-26T12:41:46;95787.56;;;14.35;45.41
35649;BME280;21768;48.562;13.414;2024-02-26T12:44:16;95783.88;;;14.24;46.22
35649;BME280;21768;48.562;13.414;2024-02-26T12:46:41;95786.19;;;14.15;46.25
35649;BME280;21768;48.562;13.414;2024-02-26T12:49:07;95785.78;;;13.98;45.50
35649;BME280;21768;48.562;13.414;2024-02-26T12:51:33;95787.88;;;13.81;46.26
35649;BME280;21768;48.562;13.414;2024-02-26T12:53:59;95788.69;;;13.80;46.16
35649;BME280;21768;48.562;13.414;2024-02-26T12:56:25;95794.66;;;13.82;46.16
35649;BME280;21768;48.562;13.414;2024-02-26T12:58:53;95789.69;;;13.87;46.49
35649;BME280;21768;48.562;13.414;2024-02-26T13:01:23;95794.00;;;13.89;45.72
35649;BME280;21768;48.562;13.414;2024-02-26T13:03:50;95795.09;;;13.99;46.46